sensor_id;sensor_type;location;lat;lon;timestamp;temperature;humidity
73360;DHT22;63092;43.582;19.528;2023-06-22T00:02:17;23.90;99.90
73360;DHT22;63092;43.582;19.528;2023-06-22T00:04:43;23.90;99.90
73360;DHT22;63092;43.582;19.528;2023-06-22T00:07:09;23.90;99.90
73360;DHT22;63092;43.582;19.528;2023-06-22T00:09:35;23.90;99.90
73360;DHT22;63092;43.582;19.528;2023-06-22T00:12:01;23.90;99.90
73360;DHT22;63092;43.582;19.528;2023-06-22T00:14:27;23.80;99.90
73360;DHT22;63092;43.582;19.528;2023-06-22T00:16:53;23.80;99.90
73360;DHT22;63092;43.582;19.528;2023-06-22T00:19:23;23.80;99.90
73360;DHT22;63092;43.582;19.528;2023-06-22T00:21:50;23.70;99.90
73360;DHT22;63092;43.582;19.528;2023-06-22T00:24:24;23.60;99.90
73360;DHT22;63092;43.582;19.528;2023-06-22T00:26:49;23.60;99.90
73360;DHT22;63092;43.582;19.528;2023-06-22T00:29:15;23.50;99.90
73360;DHT22;63092;43.582;19.528;2023-06-22T00:31:41;23.50;99.90
73360;DHT22;63092;43.582;19.528;2023-06-22T00:34:08;23.50;99.90
73360;DHT22;63092;43.582;19.528;2023-06-22T00:36:35;23.50;99.90
73360;DHT22;63092;43.582;19.528;2023-06-22T00:39:01;23.40;99.90
73360;DHT22;63092;43.582;19.528;2023-06-22T00:41:27;23.40;99.90
73360;DHT22;63092;43.582;19.528;2023-06-22T00:43:54;23.40;99.90
73360;DHT22;63092;43.582;19.528;2023-06-22T00:46:21;23.40;99.90
73360;DHT22;63092;43.582;19.528;2023-06-22T00:48:48;23.30;99.90
73360;DHT22;63092;43.582;19.528;2023-06-22T00:51:15;23.30;99.90
73360;DHT22;63092;43.582;19.528;2023-06-22T00:53:41;23.30;99.90
73360;DHT22;63092;43.582;19.528;2023-06-22T00:56:08;23.30;99.90
73360;DHT22;63092;43.582;19.528;2023-06-22T00:58:37;23.30;99.90
73360;DHT22;63092;43.582;19.528;2023-06-22T01:01:02;23.30;99.90
73360;DHT22;63092;43.582;19.528;2023-06-22T01:03:29;23.30;99.90
73360;DHT22;63092;43.582;19.528;2023-06-22T01:06:01;23.30;99.90
73360;DHT22;63092;43.582;19.528;2023-06-22T01:11:26;23.30;99.90
73360;DHT22;63092;43.582;19.528;2023-06-22T01:16:33;23.20;99.90
73360;DHT22;63092;43.582;19.528;2023-06-22T01:19:34;23.20;99.90
73360;DHT22;63092;43.582;19.528;2023-06-22T01:22:01;23.20;99.90
73360;DHT22;63092;43.582;19.528;2023-06-22T01:24:41;23.20;99.90
73360;DHT22;63092;43.582;19.528;2023-06-22T01:27:28;23.10;99.90
73360;DHT22;63092;43.582;19.528;2023-06-22T01:29:58;23.00;99.90
73360;DHT22;63092;43.582;19.528;2023-06-22T01:32:31;23.00;99.90
73360;DHT22;63092;43.582;19.528;2023-06-22T01:34:59;22.80;99.90
73360;DHT22;63092;43.582;19.528;2023-06-22T01:37:26;22.80;99.90
73360;DHT22;63092;43.582;19.528;2023-06-22T01:39:53;22.80;99.90
73360;DHT22;63092;43.582;19.528;2023-06-22T01:42:19;22.80;99.90
73360;DHT22;63092;43.582;19.528;2023-06-22T01:44:45;22.80;99.90
73360;DHT22;63092;43.582;19.528;2023-06-22T01:47:11;22.80;99.90
73360;DHT22;63092;43.582;19.528;2023-06-22T01:49:40;22.80;99.90
73360;DHT22;63092;43.582;19.528;2023-06-22T01:52:07;22.80;99.90
73360;DHT22;63092;43.582;19.528;2023-06-22T01:54:33;22.80;99.90
73360;DHT22;63092;43.582;19.528;2023-06-22T01:56:59;22.80;99.90
73360;DHT22;63092;43.582;19.528;2023-06-22T02:02:14;22.70;99.90
73360;DHT22;63092;43.582;19.528;2023-06-22T02:07:14;22.60;99.90
73360;DHT22;63092;43.582;19.528;2023-06-22T02:09:44;22.50;99.90
73360;DHT22;63092;43.582;19.528;2023-06-22T02:12:12;22.50;99.90
73360;DHT22;63092;43.582;19.528;2023-06-22T02:14:39;22.50;99.90
73360;DHT22;63092;43.582;19.528;2023-06-22T02:17:05;22.50;99.90
73360;DHT22;63092;43.582;19.528;2023-06-22T02:19:36;22.40;99.90
73360;DHT22;63092;43.582;19.528;2023-06-22T02:22:03;22.30;99.90
73360;DHT22;63092;43.582;19.528;2023-06-22T02:24:28;22.30;99.90
73360;DHT22;63092;43.582;19.528;2023-06-22T02:26:58;22.30;99.90
73360;DHT22;63092;43.582;19.528;2023-06-22T02:29:24;22.30;99.90
73360;DHT22;63092;43.582;19.528;2023-06-22T02:31:49;22.30;99.90
73360;DHT22;63092;43.582;19.528;2023-06-22T02:34:15;22.30;99.90
73360;DHT22;63092;43.582;19.528;2023-06-22T02:36:47;22.20;99.90
73360;DHT22;63092;43.582;19.528;2023-06-22T02:39:25;22.20;99.90
73360;DHT22;63092;43.582;19.528;2023-06-22T02:41:52;22.10;99.90
73360;DHT22;63092;43.582;19.528;2023-06-22T02:44:18;21.90;99.90
73360;DHT22;63092;43.582;19.528;2023-06-22T02:46:45;22.00;99.90
73360;DHT22;63092;43.582;19.528;2023-06-22T02:49:11;22.10;99.90
73360;DHT22;63092;43.582;19.528;2023-06-22T02:51:41;22.10;99.90
73360;DHT22;63092;43.582;19.528;2023-06-22T02:54:07;22.20;99.90
73360;DHT22;63092;43.582;19.528;2023-06-22T02:56:32;22.10;99.90
73360;DHT22;63092;43.582;19.528;2023-06-22T02:58:58;22.10;99.90
73360;DHT22;63092;43.582;19.528;2023-06-22T03:01:27;22.10;99.90
73360;DHT22;63092;43.582;19.528;2023-06-22T03:03:53;22.10;99.90
73360;DHT22;63092;43.582;19.528;2023-06-22T03:06:20;22.10;99.90
73360;DHT22;63092;43.582;19.528;2023-06-22T03:08:50;22.10;99.90
73360;DHT22;63092;43.582;19.528;2023-06-22T03:11:16;21.90;99.90
73360;DHT22;63092;43.582;19.528;2023-06-22T03:13:41;21.90;99.90
73360;DHT22;63092;43.582;19.528;2023-06-22T03:16:07;21.90;99.90
73360;DHT22;63092;43.582;19.528;2023-06-22T03:18:33;21.90;99.90
73360;DHT22;63092;43.582;19.528;2023-06-22T03:20:58;21.80;99.90
73360;DHT22;63092;43.582;19.528;2023-06-22T03:23:24;21.90;99.90
73360;DHT22;63092;43.582;19.528;2023-06-22T03:25:50;21.80;99.90
73360;DHT22;63092;43.582;19.528;2023-06-22T03:28:16;21.90;99.90
73360;DHT22;63092;43.582;19.528;2023-06-22T03:30:41;21.80;99.90
73360;DHT22;63092;43.582;19.528;2023-06-22T03:33:07;21.80;99.90
73360;DHT22;63092;43.582;19.528;2023-06-22T03:35:33;21.80;99.90
73360;DHT22;63092;43.582;19.528;2023-06-22T03:37:58;21.80;99.90
73360;DHT22;63092;43.582;19.528;2023-06-22T03:40:24;21.70;99.90
73360;DHT22;63092;43.582;19.528;2023-06-22T03:42:50;21.60;99.90
73360;DHT22;63092;43.582;19.528;2023-06-22T03:45:16;21.70;99.90
73360;DHT22;63092;43.582;19.528;2023-06-22T03:47:41;21.70;99.90
73360;DHT22;63092;43.582;19.528;2023-06-22T03:50:07;21.60;99.90
73360;DHT22;63092;43.582;19.528;2023-06-22T03:52:33;21.60;99.90
73360;DHT22;63092;43.582;19.528;2023-06-22T03:54:59;21.60;99.90
73360;DHT22;63092;43.582;19.528;2023-06-22T03:57:25;21.70;99.90
73360;DHT22;63092;43.582;19.528;2023-06-22T03:59:50;21.60;99.90
73360;DHT22;63092;43.582;19.528;2023-06-22T04:02:16;21.70;99.90
73360;DHT22;63092;43.582;19.528;2023-06-22T04:04:42;21.70;99.90
73360;DHT22;63092;43.582;19.528;2023-06-22T04:07:07;21.70;99.90
73360;DHT22;63092;43.582;19.528;2023-06-22T04:09:34;21.70;99.90
73360;DHT22;63092;43.582;19.528;2023-06-22T04:12:00;21.80;99.90
73360;DHT22;63092;43.582;19.528;2023-06-22T04:14:26;21.70;99.90
73360;DHT22;63092;43.582;19.528;2023-06-22T04:16:51;21.70;99.90
73360;DHT22;63092;43.582;19.528;2023-06-22T04:19:17;21.70;99.90
73360;DHT22;63092;43.582;19.528;2023-06-22T04:21:44;21.70;99.90
73360;DHT22;63092;43.582;19.528;2023-06-22T04:24:14;21.70;99.90
73360;DHT22;63092;43.582;19.528;2023-06-22T04:26:40;21.70;99.90
73360;DHT22;63092;43.582;19.528;2023-06-22T04:29:07;21.70;99.90
73360;DHT22;63092;43.582;19.528;2023-06-22T04:31:36;21.80;99.90
73360;DHT22;63092;43.582;19.528;2023-06-22T04:34:03;21.80;99.90
73360;DHT22;63092;43.582;19.528;2023-06-22T04:36:40;21.80;99.90
73360;DHT22;63092;43.582;19.528;2023-06-22T04:39:07;21.70;99.90
73360;DHT22;63092;43.582;19.528;2023-06-22T04:41:35;21.80;99.90
73360;DHT22;63092;43.582;19.528;2023-06-22T04:44:11;21.80;99.90
73360;DHT22;63092;43.582;19.528;2023-06-22T04:46:37;21.80;99.90
73360;DHT22;63092;43.582;19.528;2023-06-22T04:49:07;21.80;99.90
73360;DHT22;63092;43.582;19.528;2023-06-22T04:51:41;21.80;99.90
73360;DHT22;63092;43.582;19.528;2023-06-22T04:54:08;21.80;99.90
73360;DHT22;63092;43.582;19.528;2023-06-22T04:56:34;21.90;99.90
73360;DHT22;63092;43.582;19.528;2023-06-22T04:59:00;21.90;99.90
73360;DHT22;63092;43.582;19.528;2023-06-22T05:01:26;21.90;99.90
73360;DHT22;63092;43.582;19.528;2023-06-22T05:03:52;21.90;99.90
73360;DHT22;63092;43.582;19.528;2023-06-22T05:06:24;21.90;99.90
73360;DHT22;63092;43.582;19.528;2023-06-22T05:08:52;22.00;99.90
73360;DHT22;63092;43.582;19.528;2023-06-22T05:11:17;21.90;99.90
73360;DHT22;63092;43.582;19.528;2023-06-22T05:13:43;21.80;99.90
73360;DHT22;63092;43.582;19.528;2023-06-22T05:16:09;21.90;99.90
73360;DHT22;63092;43.582;19.528;2023-06-22T05:18:35;22.00;99.90
73360;DHT22;63092;43.582;19.528;2023-06-22T05:21:01;22.20;99.90
73360;DHT22;63092;43.582;19.528;2023-06-22T05:23:27;22.30;99.90
73360;DHT22;63092;43.582;19.528;2023-06-22T05:25:53;22.50;99.90
73360;DHT22;63092;43.582;19.528;2023-06-22T05:28:20;22.60;99.90
73360;DHT22;63092;43.582;19.528;2023-06-22T05:30:48;22.70;99.90
73360;DHT22;63092;43.582;19.528;2023-06-22T05:33:14;22.90;99.90
73360;DHT22;63092;43.582;19.528;2023-06-22T05:35:39;23.00;99.90
73360;DHT22;63092;43.582;19.528;2023-06-22T05:38:05;23.20;99.90
73360;DHT22;63092;43.582;19.528;2023-06-22T05:40:31;23.20;99.90
73360;DHT22;63092;43.582;19.528;2023-06-22T05:42:57;23.20;99.90
73360;DHT22;63092;43.582;19.528;2023-06-22T05:45:23;23.40;99.90
73360;DHT22;63092;43.582;19.528;2023-06-22T05:47:48;23.40;99.90
73360;DHT22;63092;43.582;19.528;2023-06-22T05:50:14;23.60;99.90
73360;DHT22;63092;43.582;19.528;2023-06-22T05:52:40;23.70;99.90
73360;DHT22;63092;43.582;19.528;2023-06-22T05:55:06;23.70;99.90
73360;DHT22;63092;43.582;19.528;2023-06-22T05:57:32;23.70;99.90
73360;DHT22;63092;43.582;19.528;2023-06-22T05:59:57;23.80;99.90
73360;DHT22;63092;43.582;19.528;2023-06-22T06:02:23;23.90;99.90
73360;DHT22;63092;43.582;19.528;2023-06-22T06:04:49;23.90;99.90
73360;DHT22;63092;43.582;19.528;2023-06-22T06:07:16;24.00;99.90
73360;DHT22;63092;43.582;19.528;2023-06-22T06:09:42;24.00;99.90
73360;DHT22;63092;43.582;19.528;2023-06-22T06:12:08;24.20;99.90
73360;DHT22;63092;43.582;19.528;2023-06-22T06:14:34;24.20;99.90
73360;DHT22;63092;43.582;19.528;2023-06-22T06:17:00;24.40;99.90
73360;DHT22;63092;43.582;19.528;2023-06-22T06:19:26;24.30;99.80
73360;DHT22;63092;43.582;19.528;2023-06-22T06:21:52;24.40;99.60
73360;DHT22;63092;43.582;19.528;2023-06-22T06:24:17;24.40;99.60
73360;DHT22;63092;43.582;19.528;2023-06-22T06:26:43;24.50;99.60
73360;DHT22;63092;43.582;19.528;2023-06-22T06:29:09;24.50;99.50
73360;DHT22;63092;43.582;19.528;2023-06-22T06:31:34;24.50;99.40
73360;DHT22;63092;43.582;19.528;2023-06-22T06:34:01;24.60;99.40
73360;DHT22;63092;43.582;19.528;2023-06-22T06:36:27;24.60;99.60
73360;DHT22;63092;43.582;19.528;2023-06-22T06:38:53;24.60;99.40
73360;DHT22;63092;43.582;19.528;2023-06-22T06:41:19;24.80;99.30
73360;DHT22;63092;43.582;19.528;2023-06-22T06:43:44;24.90;99.30
73360;DHT22;63092;43.582;19.528;2023-06-22T06:46:10;25.00;99.10
73360;DHT22;63092;43.582;19.528;2023-06-22T06:48:36;25.00;98.90
73360;DHT22;63092;43.582;19.528;2023-06-22T06:51:02;25.20;98.80
73360;DHT22;63092;43.582;19.528;2023-06-22T06:53:28;25.10;98.70
73360;DHT22;63092;43.582;19.528;2023-06-22T06:55:54;25.30;98.70
73360;DHT22;63092;43.582;19.528;2023-06-22T06:58:20;25.30;98.50
73360;DHT22;63092;43.582;19.528;2023-06-22T07:00:45;25.30;98.50
73360;DHT22;63092;43.582;19.528;2023-06-22T07:03:11;25.20;98.40
73360;DHT22;63092;43.582;19.528;2023-06-22T07:05:37;25.00;98.60
73360;DHT22;63092;43.582;19.528;2023-06-22T07:08:03;25.20;98.80
73360;DHT22;63092;43.582;19.528;2023-06-22T07:10:29;25.40;98.10
73360;DHT22;63092;43.582;19.528;2023-06-22T07:12:55;25.40;98.20
73360;DHT22;63092;43.582;19.528;2023-06-22T07:15:20;25.30;98.40
73360;DHT22;63092;43.582;19.528;2023-06-22T07:17:46;25.10;98.60
73360;DHT22;63092;43.582;19.528;2023-06-22T07:20:12;25.20;98.30
73360;DHT22;63092;43.582;19.528;2023-06-22T07:22:42;25.30;98.40
73360;DHT22;63092;43.582;19.528;2023-06-22T07:25:09;25.40;98.50
73360;DHT22;63092;43.582;19.528;2023-06-22T07:27:39;25.20;98.40
73360;DHT22;63092;43.582;19.528;2023-06-22T07:30:09;25.30;99.00
73360;DHT22;63092;43.582;19.528;2023-06-22T07:32:35;25.00;98.70
73360;DHT22;63092;43.582;19.528;2023-06-22T07:35:01;25.10;99.00
73360;DHT22;63092;43.582;19.528;2023-06-22T07:37:28;25.20;98.60
73360;DHT22;63092;43.582;19.528;2023-06-22T07:39:55;25.40;98.90
73360;DHT22;63092;43.582;19.528;2023-06-22T07:42:27;25.50;99.30
73360;DHT22;63092;43.582;19.528;2023-06-22T07:44:54;25.60;99.10
73360;DHT22;63092;43.582;19.528;2023-06-22T07:47:20;25.50;98.80
73360;DHT22;63092;43.582;19.528;2023-06-22T07:49:50;25.60;98.80
73360;DHT22;63092;43.582;19.528;2023-06-22T07:52:16;25.80;98.70
73360;DHT22;63092;43.582;19.528;2023-06-22T07:54:42;25.90;98.50
73360;DHT22;63092;43.582;19.528;2023-06-22T07:57:07;26.00;98.70
73360;DHT22;63092;43.582;19.528;2023-06-22T07:59:33;26.00;98.80
73360;DHT22;63092;43.582;19.528;2023-06-22T08:01:59;26.10;98.80
73360;DHT22;63092;43.582;19.528;2023-06-22T08:04:25;26.20;98.70
73360;DHT22;63092;43.582;19.528;2023-06-22T08:09:19;26.30;98.30
73360;DHT22;63092;43.582;19.528;2023-06-22T08:11:45;26.30;98.30
73360;DHT22;63092;43.582;19.528;2023-06-22T08:14:10;26.40;98.00
73360;DHT22;63092;43.582;19.528;2023-06-22T08:16:36;26.50;98.50
73360;DHT22;63092;43.582;19.528;2023-06-22T08:19:02;26.50;98.30
73360;DHT22;63092;43.582;19.528;2023-06-22T08:21:28;26.60;98.10
73360;DHT22;63092;43.582;19.528;2023-06-22T08:23:53;26.70;98.20
73360;DHT22;63092;43.582;19.528;2023-06-22T08:26:19;26.70;98.10
73360;DHT22;63092;43.582;19.528;2023-06-22T08:28:45;26.80;98.00
73360;DHT22;63092;43.582;19.528;2023-06-22T08:33:39;26.90;98.00
73360;DHT22;63092;43.582;19.528;2023-06-22T08:36:06;27.10;97.90
73360;DHT22;63092;43.582;19.528;2023-06-22T08:38:32;27.10;97.80
73360;DHT22;63092;43.582;19.528;2023-06-22T08:40:57;27.10;97.50
73360;DHT22;63092;43.582;19.528;2023-06-22T08:43:23;27.20;97.10
73360;DHT22;63092;43.582;19.528;2023-06-22T08:48:15;27.30;97.40
73360;DHT22;63092;43.582;19.528;2023-06-22T08:50:41;27.40;96.40
73360;DHT22;63092;43.582;19.528;2023-06-22T08:53:06;27.50;97.50
73360;DHT22;63092;43.582;19.528;2023-06-22T08:55:33;27.40;96.90
73360;DHT22;63092;43.582;19.528;2023-06-22T08:57:59;27.50;96.30
73360;DHT22;63092;43.582;19.528;2023-06-22T09:00:24;27.60;96.70
73360;DHT22;63092;43.582;19.528;2023-06-22T09:02:50;27.60;96.50
73360;DHT22;63092;43.582;19.528;2023-06-22T09:05:16;27.70;96.40
73360;DHT22;63092;43.582;19.528;2023-06-22T09:07:42;27.80;95.70
73360;DHT22;63092;43.582;19.528;2023-06-22T09:10:08;27.80;95.90
73360;DHT22;63092;43.582;19.528;2023-06-22T09:12:34;27.90;96.30
73360;DHT22;63092;43.582;19.528;2023-06-22T09:15:02;27.90;95.90
73360;DHT22;63092;43.582;19.528;2023-06-22T09:17:28;28.10;95.40
73360;DHT22;63092;43.582;19.528;2023-06-22T09:19:54;28.20;96.20
73360;DHT22;63092;43.582;19.528;2023-06-22T09:22:20;28.30;96.20
73360;DHT22;63092;43.582;19.528;2023-06-22T09:24:46;28.40;96.00
73360;DHT22;63092;43.582;19.528;2023-06-22T09:27:12;28.40;95.10
73360;DHT22;63092;43.582;19.528;2023-06-22T09:29:38;28.50;95.10
73360;DHT22;63092;43.582;19.528;2023-06-22T09:32:04;28.60;95.40
73360;DHT22;63092;43.582;19.528;2023-06-22T09:34:30;28.70;95.10
73360;DHT22;63092;43.582;19.528;2023-06-22T09:41:51;29.00;95.70
73360;DHT22;63092;43.582;19.528;2023-06-22T09:44:18;29.10;95.50
73360;DHT22;63092;43.582;19.528;2023-06-22T09:46:43;29.10;94.60
73360;DHT22;63092;43.582;19.528;2023-06-22T09:49:09;29.20;95.10
73360;DHT22;63092;43.582;19.528;2023-06-22T09:51:35;29.20;94.60
73360;DHT22;63092;43.582;19.528;2023-06-22T09:54:01;29.40;94.30
73360;DHT22;63092;43.582;19.528;2023-06-22T09:58:54;29.50;94.20
73360;DHT22;63092;43.582;19.528;2023-06-22T10:01:20;29.60;94.90
73360;DHT22;63092;43.582;19.528;2023-06-22T10:06:12;29.80;93.70
73360;DHT22;63092;43.582;19.528;2023-06-22T10:08:38;29.90;92.60
73360;DHT22;63092;43.582;19.528;2023-06-22T10:11:04;30.10;91.80
73360;DHT22;63092;43.582;19.528;2023-06-22T10:15:57;30.10;92.30
73360;DHT22;63092;43.582;19.528;2023-06-22T10:18:23;30.10;92.60
73360;DHT22;63092;43.582;19.528;2023-06-22T10:20:50;30.20;91.50
73360;DHT22;63092;43.582;19.528;2023-06-22T10:23:22;30.20;92.80
73360;DHT22;63092;43.582;19.528;2023-06-22T10:25:49;30.20;91.30
73360;DHT22;63092;43.582;19.528;2023-06-22T10:28:15;30.20;90.80
73360;DHT22;63092;43.582;19.528;2023-06-22T10:30:41;30.10;91.20
73360;DHT22;63092;43.582;19.528;2023-06-22T10:33:08;30.30;91.00
73360;DHT22;63092;43.582;19.528;2023-06-22T10:38:00;30.40;90.50
73360;DHT22;63092;43.582;19.528;2023-06-22T10:40:26;30.40;89.80
73360;DHT22;63092;43.582;19.528;2023-06-22T10:45:18;30.70;87.80
73360;DHT22;63092;43.582;19.528;2023-06-22T10:47:44;30.70;86.00
73360;DHT22;63092;43.582;19.528;2023-06-22T10:50:10;30.90;89.50
73360;DHT22;63092;43.582;19.528;2023-06-22T10:52:37;30.90;87.10
73360;DHT22;63092;43.582;19.528;2023-06-22T10:55:03;30.80;83.10
73360;DHT22;63092;43.582;19.528;2023-06-22T10:57:29;30.90;82.80
73360;DHT22;63092;43.582;19.528;2023-06-22T10:59:55;30.90;85.20
73360;DHT22;63092;43.582;19.528;2023-06-22T11:02:20;30.90;85.00
73360;DHT22;63092;43.582;19.528;2023-06-22T11:07:13;31.10;85.20
73360;DHT22;63092;43.582;19.528;2023-06-22T11:09:39;31.10;83.70
73360;DHT22;63092;43.582;19.528;2023-06-22T11:12:05;31.10;84.80
73360;DHT22;63092;43.582;19.528;2023-06-22T11:14:31;31.40;81.40
73360;DHT22;63092;43.582;19.528;2023-06-22T11:16:59;31.40;83.40
73360;DHT22;63092;43.582;19.528;2023-06-22T11:19:25;31.40;82.90
73360;DHT22;63092;43.582;19.528;2023-06-22T11:21:50;31.40;82.40
73360;DHT22;63092;43.582;19.528;2023-06-22T11:24:17;31.40;81.60
73360;DHT22;63092;43.582;19.528;2023-06-22T11:26:43;31.50;81.80
73360;DHT22;63092;43.582;19.528;2023-06-22T11:29:09;31.50;84.10
73360;DHT22;63092;43.582;19.528;2023-06-22T11:31:35;31.60;83.60
73360;DHT22;63092;43.582;19.528;2023-06-22T11:34:01;31.60;82.80
73360;DHT22;63092;43.582;19.528;2023-06-22T11:36:27;31.60;83.20
73360;DHT22;63092;43.582;19.528;2023-06-22T11:38:54;31.70;79.00
73360;DHT22;63092;43.582;19.528;2023-06-22T11:41:20;31.80;73.50
73360;DHT22;63092;43.582;19.528;2023-06-22T11:46:12;32.00;75.00
73360;DHT22;63092;43.582;19.528;2023-06-22T11:48:37;32.10;75.00
73360;DHT22;63092;43.582;19.528;2023-06-22T11:51:03;32.10;78.20
73360;DHT22;63092;43.582;19.528;2023-06-22T11:53:29;32.10;79.40
73360;DHT22;63092;43.582;19.528;2023-06-22T11:58:23;32.10;82.40
73360;DHT22;63092;43.582;19.528;2023-06-22T12:03:15;32.20;77.00
73360;DHT22;63092;43.582;19.528;2023-06-22T12:05:42;32.20;72.10
73360;DHT22;63092;43.582;19.528;2023-06-22T12:08:07;32.30;72.30
73360;DHT22;63092;43.582;19.528;2023-06-22T12:13:00;32.50;73.20
73360;DHT22;63092;43.582;19.528;2023-06-22T12:15:26;32.50;74.10
73360;DHT22;63092;43.582;19.528;2023-06-22T12:17:52;32.60;69.20
73360;DHT22;63092;43.582;19.528;2023-06-22T12:20:18;32.70;72.00
73360;DHT22;63092;43.582;19.528;2023-06-22T12:22:44;32.70;68.30
73360;DHT22;63092;43.582;19.528;2023-06-22T12:25:10;32.70;70.80
73360;DHT22;63092;43.582;19.528;2023-06-22T12:27:36;32.70;73.10
73360;DHT22;63092;43.582;19.528;2023-06-22T12:30:03;32.70;71.80
73360;DHT22;63092;43.582;19.528;2023-06-22T12:32:29;32.80;72.70
73360;DHT22;63092;43.582;19.528;2023-06-22T12:34:55;32.70;73.10
73360;DHT22;63092;43.582;19.528;2023-06-22T12:37:21;32.80;72.20
73360;DHT22;63092;43.582;19.528;2023-06-22T12:39:47;32.80;71.80
73360;DHT22;63092;43.582;19.528;2023-06-22T12:42:13;32.90;72.30
73360;DHT22;63092;43.582;19.528;2023-06-22T12:47:05;32.90;70.60
73360;DHT22;63092;43.582;19.528;2023-06-22T12:49:31;32.90;70.60
73360;DHT22;63092;43.582;19.528;2023-06-22T12:51:57;32.90;71.30
73360;DHT22;63092;43.582;19.528;2023-06-22T12:54:23;32.90;70.50
73360;DHT22;63092;43.582;19.528;2023-06-22T12:56:50;33.00;72.10
73360;DHT22;63092;43.582;19.528;2023-06-22T12:59:16;33.10;72.00
73360;DHT22;63092;43.582;19.528;2023-06-22T13:01:43;33.20;70.70
73360;DHT22;63092;43.582;19.528;2023-06-22T13:04:13;33.20;69.90
73360;DHT22;63092;43.582;19.528;2023-06-22T13:06:44;33.20;69.90
73360;DHT22;63092;43.582;19.528;2023-06-22T13:09:14;33.30;69.70
73360;DHT22;63092;43.582;19.528;2023-06-22T13:11:40;33.30;70.10
73360;DHT22;63092;43.582;19.528;2023-06-22T13:14:06;33.40;70.60
73360;DHT22;63092;43.582;19.528;2023-06-22T13:16:31;33.30;71.20
73360;DHT22;63092;43.582;19.528;2023-06-22T13:18:57;33.40;71.10
73360;DHT22;63092;43.582;19.528;2023-06-22T13:21:23;33.40;71.00
73360;DHT22;63092;43.582;19.528;2023-06-22T13:34:31;33.30;70.70
73360;DHT22;63092;43.582;19.528;2023-06-22T13:36:57;33.90;70.00
73360;DHT22;63092;43.582;19.528;2023-06-22T13:39:23;33.80;70.00
73360;DHT22;63092;43.582;19.528;2023-06-22T13:41:49;33.70;71.80
73360;DHT22;63092;43.582;19.528;2023-06-22T13:44:14;33.70;69.80
73360;DHT22;63092;43.582;19.528;2023-06-22T13:46:40;33.60;70.00
73360;DHT22;63092;43.582;19.528;2023-06-22T13:49:06;33.70;70.50
73360;DHT22;63092;43.582;19.528;2023-06-22T13:51:31;33.60;70.40
73360;DHT22;63092;43.582;19.528;2023-06-22T13:53:57;33.70;71.80
73360;DHT22;63092;43.582;19.528;2023-06-22T13:56:23;33.70;72.20
73360;DHT22;63092;43.582;19.528;2023-06-22T13:58:49;33.70;72.60
73360;DHT22;63092;43.582;19.528;2023-06-22T14:01:14;33.70;73.50
73360;DHT22;63092;43.582;19.528;2023-06-22T14:03:40;33.70;74.70
73360;DHT22;63092;43.582;19.528;2023-06-22T14:06:06;33.60;74.50
73360;DHT22;63092;43.582;19.528;2023-06-22T14:08:32;33.50;74.70
73360;DHT22;63092;43.582;19.528;2023-06-22T14:10:57;33.40;74.20
73360;DHT22;63092;43.582;19.528;2023-06-22T14:13:23;33.30;75.00
73360;DHT22;63092;43.582;19.528;2023-06-22T14:15:49;33.20;76.80
73360;DHT22;63092;43.582;19.528;2023-06-22T14:18:17;33.20;77.40
73360;DHT22;63092;43.582;19.528;2023-06-22T14:20:43;33.20;78.50
73360;DHT22;63092;43.582;19.528;2023-06-22T14:23:09;33.30;80.00
73360;DHT22;63092;43.582;19.528;2023-06-22T14:25:35;33.30;79.50
73360;DHT22;63092;43.582;19.528;2023-06-22T14:28:01;33.30;79.20
73360;DHT22;63092;43.582;19.528;2023-06-22T14:30:26;33.30;77.70
73360;DHT22;63092;43.582;19.528;2023-06-22T14:32:52;33.30;77.70
73360;DHT22;63092;43.582;19.528;2023-06-22T14:35:18;33.30;76.90
73360;DHT22;63092;43.582;19.528;2023-06-22T14:37:43;33.50;75.90
73360;DHT22;63092;43.582;19.528;2023-06-22T14:40:10;33.40;75.30
73360;DHT22;63092;43.582;19.528;2023-06-22T14:42:35;33.30;77.80
73360;DHT22;63092;43.582;19.528;2023-06-22T14:45:01;33.30;78.90
73360;DHT22;63092;43.582;19.528;2023-06-22T14:47:27;33.30;79.70
73360;DHT22;63092;43.582;19.528;2023-06-22T14:49:54;33.40;78.80
73360;DHT22;63092;43.582;19.528;2023-06-22T14:52:20;33.40;79.80
73360;DHT22;63092;43.582;19.528;2023-06-22T14:54:46;33.40;78.50
73360;DHT22;63092;43.582;19.528;2023-06-22T14:57:11;33.40;78.80
73360;DHT22;63092;43.582;19.528;2023-06-22T14:59:37;33.50;76.70
73360;DHT22;63092;43.582;19.528;2023-06-22T15:02:03;33.50;77.20
73360;DHT22;63092;43.582;19.528;2023-06-22T15:04:29;33.50;77.80
73360;DHT22;63092;43.582;19.528;2023-06-22T15:07:00;33.50;78.60
73360;DHT22;63092;43.582;19.528;2023-06-22T15:09:26;33.40;78.70
73360;DHT22;63092;43.582;19.528;2023-06-22T15:11:52;33.40;80.10
73360;DHT22;63092;43.582;19.528;2023-06-22T15:14:18;33.50;78.50
73360;DHT22;63092;43.582;19.528;2023-06-22T15:16:43;33.50;80.20
73360;DHT22;63092;43.582;19.528;2023-06-22T15:19:09;33.40;80.50
73360;DHT22;63092;43.582;19.528;2023-06-22T15:21:35;33.30;78.70
73360;DHT22;63092;43.582;19.528;2023-06-22T15:24:01;33.30;80.20
73360;DHT22;63092;43.582;19.528;2023-06-22T15:26:27;33.30;79.90
73360;DHT22;63092;43.582;19.528;2023-06-22T15:28:53;33.40;80.00
73360;DHT22;63092;43.582;19.528;2023-06-22T15:31:18;33.40;82.30
73360;DHT22;63092;43.582;19.528;2023-06-22T15:33:44;33.30;82.80
73360;DHT22;63092;43.582;19.528;2023-06-22T15:36:10;33.40;81.90
73360;DHT22;63092;43.582;19.528;2023-06-22T15:38:36;33.40;82.70
73360;DHT22;63092;43.582;19.528;2023-06-22T15:41:01;33.30;82.20
73360;DHT22;63092;43.582;19.528;2023-06-22T15:43:27;33.40;84.00
73360;DHT22;63092;43.582;19.528;2023-06-22T15:45:53;33.40;82.80
73360;DHT22;63092;43.582;19.528;2023-06-22T15:48:22;33.50;82.10
73360;DHT22;63092;43.582;19.528;2023-06-22T15:50:48;33.50;81.50
73360;DHT22;63092;43.582;19.528;2023-06-22T15:53:14;33.50;81.30
73360;DHT22;63092;43.582;19.528;2023-06-22T15:55:41;33.50;82.10
73360;DHT22;63092;43.582;19.528;2023-06-22T15:58:07;33.40;84.20
73360;DHT22;63092;43.582;19.528;2023-06-22T16:00:34;33.40;83.90
73360;DHT22;63092;43.582;19.528;2023-06-22T16:03:00;33.40;83.90
73360;DHT22;63092;43.582;19.528;2023-06-22T16:05:26;33.40;84.30
73360;DHT22;63092;43.582;19.528;2023-06-22T16:07:54;33.30;84.90
73360;DHT22;63092;43.582;19.528;2023-06-22T16:10:20;33.20;84.60
73360;DHT22;63092;43.582;19.528;2023-06-22T16:12:46;33.10;85.50